createdAt,value
2018-07-07T00:00:25.118Z,66.60
2018-07-07T00:03:28.266Z,66.80
2018-07-07T00:06:31.409Z,66.00
2018-07-07T00:09:34.558Z,67.00
2018-07-07T00:12:37.992Z,67.70
2018-07-07T00:15:41.135Z,67.60
2018-07-07T00:18:44.276Z,68.70
2018-07-07T00:21:47.462Z,68.10
2018-07-07T00:24:50.572Z,68.20
2018-07-07T00:27:53.719Z,68.50
2018-07-07T00:30:56.879Z,70.00
2018-07-07T00:34:00.030Z,69.90
2018-07-07T00:37:03.178Z,70.90
2018-07-07T00:40:06.841Z,70.90
2018-07-07T00:43:10.063Z,70.60
2018-07-07T00:46:13.234Z,70.80
2018-07-07T00:49:16.458Z,70.70
2018-07-07T00:52:19.626Z,70.40
2018-07-07T00:55:23.007Z,70.40
2018-07-07T01:01:29.054Z,70.70
2018-07-07T01:04:32.170Z,70.60
2018-07-07T01:07:35.298Z,70.90
2018-07-07T01:10:38.414Z,72.50
2018-07-07T01:13:41.554Z,72.10
2018-07-07T01:19:47.622Z,72.70
2018-07-07T01:22:50.767Z,73.30
2018-07-07T01:25:53.911Z,74.20
2018-07-07T01:28:57.059Z,74.80
2018-07-07T01:32:00.210Z,74.90
2018-07-07T01:35:03.356Z,75.30
2018-07-07T01:38:06.503Z,75.90
2018-07-07T01:41:09.647Z,76.00
2018-07-07T01:44:12.799Z,76.10
2018-07-07T01:47:15.943Z,76.60
2018-07-07T01:50:19.083Z,76.90
2018-07-07T01:53:22.263Z,76.80
2018-07-07T01:56:25.407Z,76.60
2018-07-07T01:59:28.580Z,77.50
2018-07-07T02:02:31.739Z,78.20
2018-07-07T02:05:34.891Z,79.00
2018-07-07T02:08:38.055Z,78.80
2018-07-07T02:11:41.199Z,78.90
2018-07-07T02:14:44.355Z,79.00
2018-07-07T02:17:47.511Z,78.40
2018-07-07T02:20:50.659Z,78.60
2018-07-07T02:23:53.821Z,78.70
2018-07-07T02:26:56.977Z,77.80
2018-07-07T02:30:00.139Z,77.70
2018-07-07T02:33:03.303Z,78.20
2018-07-07T02:36:06.455Z,78.80
2018-07-07T02:39:09.611Z,80.50
2018-07-07T02:42:12.761Z,79.60
2018-07-07T02:45:15.902Z,78.60
2018-07-07T02:48:19.075Z,78.00
2018-07-07T02:51:22.243Z,79.00
2018-07-07T02:54:25.671Z,79.60
2018-07-07T02:57:28.826Z,80.30
2018-07-07T03:00:31.987Z,80.60
2018-07-07T03:03:35.419Z,81.10
2018-07-07T03:06:38.575Z,81.30
2018-07-07T03:09:41.734Z,81.30
2018-07-07T03:12:44.890Z,81.50
2018-07-07T03:15:48.046Z,82.80
2018-07-07T03:18:51.212Z,82.90
2018-07-07T03:21:54.388Z,83.80
2018-07-07T03:24:57.539Z,84.00
2018-07-07T03:28:00.695Z,84.60
2018-07-07T03:31:04.175Z,85.60
2018-07-07T03:34:07.371Z,85.60
2018-07-07T03:37:10.519Z,85.60
2018-07-07T03:40:13.675Z,84.90
2018-07-07T03:43:17.142Z,84.20
2018-07-07T03:46:20.395Z,83.50
2018-07-07T03:49:23.581Z,83.00
2018-07-07T03:52:26.711Z,82.70
2018-07-07T03:58:32.779Z,81.90
2018-07-07T04:01:35.980Z,82.50
2018-07-07T04:04:40.242Z,81.10
2018-07-07T04:07:43.399Z,80.00
2018-07-07T04:10:46.571Z,78.80
2018-07-07T04:13:49.795Z,77.80
2018-07-07T04:16:52.959Z,76.40
2018-07-07T04:19:56.125Z,76.20
2018-07-07T04:22:59.263Z,74.60
2018-07-07T04:26:02.550Z,72.70
2018-07-07T04:32:09.471Z,65.80
2018-07-07T04:35:12.642Z,64.10
2018-07-07T04:38:15.979Z,62.70
2018-07-07T04:41:19.167Z,61.80
2018-07-07T04:44:22.299Z,61.90
2018-07-07T04:47:25.459Z,60.60
2018-07-07T04:50:28.602Z,59.80
2018-07-07T04:53:31.747Z,60.40
2018-07-07T04:56:34.875Z,60.40
2018-07-07T04:59:37.999Z,59.60
2018-07-07T05:02:41.131Z,58.70
2018-07-07T05:05:44.258Z,57.90
2018-07-07T05:08:47.385Z,56.10
2018-07-07T05:11:50.522Z,54.20
2018-07-07T05:14:53.661Z,55.50
2018-07-07T05:17:56.939Z,58.10
2018-07-07T05:21:00.498Z,59.80
2018-07-07T05:24:03.635Z,57.40
2018-07-07T05:27:07.023Z,54.60
2018-07-07T05:30:10.191Z,52.80
2018-07-07T05:33:13.516Z,53.30
2018-07-07T05:36:16.655Z,53.40
2018-07-07T05:39:19.829Z,53.80
2018-07-07T05:42:22.959Z,52.10
2018-07-07T05:45:26.093Z,50.00
2018-07-07T05:48:29.495Z,48.30
2018-07-07T05:51:32.752Z,50.20
2018-07-07T05:54:35.902Z,49.30
2018-07-07T05:57:39.044Z,48.30
2018-07-07T06:00:42.217Z,47.60
2018-07-07T06:03:45.429Z,47.50
2018-07-07T06:06:48.591Z,50.80
2018-07-07T06:09:51.713Z,50.30
2018-07-07T06:12:54.961Z,49.60
2018-07-07T06:15:58.187Z,50.90
2018-07-07T06:19:01.614Z,53.30
2018-07-07T06:22:04.768Z,52.80
2018-07-07T06:25:08.419Z,53.00
2018-07-07T06:28:11.594Z,53.80
2018-07-07T06:31:14.717Z,55.40
2018-07-07T06:34:18.018Z,52.00
2018-07-07T06:37:21.300Z,49.10
2018-07-07T06:40:24.401Z,45.50
2018-07-07T06:43:27.541Z,43.40
2018-07-07T06:46:30.667Z,42.70
2018-07-07T06:49:33.828Z,40.40
2018-07-07T06:52:37.031Z,40.10
2018-07-07T06:55:40.154Z,39.40
2018-07-07T06:58:43.654Z,39.80
2018-07-07T07:01:46.786Z,40.00
2018-07-07T07:04:49.929Z,40.60
2018-07-07T07:07:53.662Z,40.20
2018-07-07T07:10:57.837Z,39.70
2018-07-07T07:14:00.992Z,41.30
2018-07-07T07:17:04.203Z,42.00
2018-07-07T07:20:07.387Z,41.20
2018-07-07T07:23:10.511Z,40.60
2018-07-07T07:26:13.757Z,40.90
2018-07-07T07:29:16.895Z,39.10
2018-07-07T07:32:20.015Z,38.50
2018-07-07T07:35:23.186Z,36.80
2018-07-07T07:38:26.321Z,36.10
2018-07-07T07:41:29.460Z,35.20
2018-07-07T07:44:32.600Z,35.20
2018-07-07T07:47:35.751Z,35.10
2018-07-07T07:50:38.962Z,33.30
2018-07-07T07:53:42.111Z,35.70
2018-07-07T07:56:45.258Z,36.60
2018-07-07T07:59:48.451Z,37.50
2018-07-07T08:02:51.607Z,40.60
2018-07-07T08:05:54.763Z,39.40
2018-07-07T08:08:57.916Z,39.10
2018-07-07T08:12:01.140Z,37.40
2018-07-07T08:18:07.487Z,34.90
2018-07-07T08:21:10.644Z,35.30
2018-07-07T08:24:14.111Z,34.20
2018-07-07T08:27:17.271Z,33.50
2018-07-07T08:30:20.427Z,34.30
2018-07-07T08:33:23.926Z,33.70
2018-07-07T08:36:27.082Z,35.70
2018-07-07T08:39:30.310Z,35.90
2018-07-07T08:42:33.475Z,37.30
2018-07-07T08:45:36.635Z,37.00
2018-07-07T08:48:39.798Z,36.90
2018-07-07T08:51:42.979Z,36.60
2018-07-07T08:54:46.187Z,36.30
2018-07-07T08:57:49.411Z,34.10
2018-07-07T09:00:52.621Z,33.60
2018-07-07T09:03:55.749Z,33.00
2018-07-07T09:06:58.900Z,33.70
2018-07-07T09:10:02.040Z,32.80
2018-07-07T09:13:05.202Z,30.70
2018-07-07T09:16:08.376Z,30.60
2018-07-07T09:19:11.523Z,29.90
2018-07-07T09:22:14.684Z,30.80
2018-07-07T09:25:17.864Z,31.00
2018-07-07T09:28:21.007Z,31.20
2018-07-07T09:31:24.150Z,30.90
2018-07-07T09:34:27.298Z,31.60
2018-07-07T09:37:30.447Z,31.70
2018-07-07T09:40:33.602Z,31.10
2018-07-07T09:43:36.750Z,31.30
2018-07-07T09:46:39.912Z,31.00
2018-07-07T09:49:43.051Z,30.90
2018-07-07T09:52:46.192Z,31.20
2018-07-07T09:55:49.322Z,31.80
2018-07-07T09:58:52.455Z,31.60
2018-07-07T10:01:55.663Z,32.90
2018-07-07T10:04:58.735Z,32.30
2018-07-07T10:08:01.872Z,32.80
2018-07-07T10:11:05.669Z,32.60
2018-07-07T10:14:08.798Z,31.90
2018-07-07T10:17:11.942Z,32.70
2018-07-07T10:20:15.291Z,32.90
2018-07-07T10:23:18.426Z,33.20
2018-07-07T10:26:21.622Z,34.00
2018-07-07T10:29:24.698Z,35.10
2018-07-07T10:32:27.848Z,35.40
2018-07-07T10:35:30.987Z,35.30
2018-07-07T10:38:34.129Z,35.20
2018-07-07T10:41:38.047Z,34.90
2018-07-07T10:44:41.714Z,35.30
2018-07-07T10:47:44.928Z,34.90
2018-07-07T10:50:48.062Z,35.70
2018-07-07T10:53:51.235Z,36.00
2018-07-07T10:56:54.458Z,37.00
2018-07-07T10:59:57.603Z,37.00
2018-07-07T11:03:00.784Z,36.30
2018-07-07T11:06:03.939Z,36.80
2018-07-07T11:09:07.115Z,36.90
2018-07-07T11:12:10.368Z,36.80
2018-07-07T11:15:13.464Z,36.10
2018-07-07T11:18:16.631Z,36.00
2018-07-07T11:21:19.825Z,36.80
2018-07-07T11:24:22.999Z,37.20
2018-07-07T11:27:26.307Z,37.90
2018-07-07T11:30:29.663Z,38.40
2018-07-07T11:33:32.843Z,38.70
2018-07-07T11:36:36.147Z,38.90
2018-07-07T11:39:39.327Z,39.50
2018-07-07T11:42:42.683Z,38.60
2018-07-07T11:45:45.827Z,38.40
2018-07-07T11:48:49.014Z,39.20
2018-07-07T11:51:52.320Z,41.30
2018-07-07T11:54:55.515Z,42.10
2018-07-07T11:57:58.851Z,41.70
2018-07-07T12:01:02.179Z,41.60
2018-07-07T12:04:05.431Z,42.50
2018-07-07T12:10:11.698Z,43.70
2018-07-07T12:13:15.163Z,44.20
2018-07-07T12:16:18.628Z,42.90
2018-07-07T12:19:22.174Z,43.30
2018-07-07T12:22:25.762Z,43.10
2018-07-07T12:25:28.920Z,43.70
2018-07-07T12:28:32.315Z,44.30
2018-07-07T12:31:35.865Z,44.80
2018-07-07T12:34:40.250Z,44.70
2018-07-07T12:37:43.495Z,45.10
2018-07-07T12:40:46.820Z,44.80
2018-07-07T12:43:50.028Z,44.40
2018-07-07T12:46:53.202Z,44.40
2018-07-07T12:49:56.603Z,43.00
2018-07-07T12:52:59.827Z,42.10
2018-07-07T12:56:03.080Z,42.30
2018-07-07T12:59:06.378Z,42.40
2018-07-07T13:02:09.587Z,42.50
2018-07-07T13:05:12.732Z,43.10
2018-07-07T13:11:18.767Z,43.90
2018-07-07T13:14:21.891Z,43.40
2018-07-07T13:17:25.140Z,43.20
2018-07-07T13:20:28.295Z,43.90
2018-07-07T13:23:31.539Z,43.90
2018-07-07T13:26:34.703Z,43.90
2018-07-07T13:29:38.092Z,44.40
2018-07-07T13:32:41.296Z,44.00
2018-07-07T13:35:44.434Z,44.00
2018-07-07T13:38:47.646Z,43.60
2018-07-07T13:41:50.734Z,43.20
2018-07-07T13:44:53.864Z,43.20
2018-07-07T13:47:57.009Z,42.70
2018-07-07T13:51:00.176Z,43.50
2018-07-07T13:54:03.347Z,43.60
2018-07-07T13:57:06.523Z,44.30
2018-07-07T14:00:09.659Z,44.50
2018-07-07T14:03:13.107Z,44.50
2018-07-07T14:06:16.227Z,44.00
2018-07-07T14:09:19.632Z,44.00
2018-07-07T14:12:22.823Z,43.40
2018-07-07T14:15:26.062Z,43.60
2018-07-07T14:18:29.571Z,43.60
2018-07-07T14:21:33.393Z,42.60
2018-07-07T14:24:36.826Z,42.30
2018-07-07T14:27:40.180Z,42.40
2018-07-07T14:30:44.496Z,43.20
2018-07-07T14:33:47.887Z,44.30
2018-07-07T14:36:51.113Z,44.20
2018-07-07T14:39:57.186Z,44.80
2018-07-07T14:43:00.984Z,45.70
2018-07-07T14:46:07.570Z,46.00
2018-07-07T14:49:10.715Z,46.00
2018-07-07T14:52:14.191Z,45.90
2018-07-07T14:55:18.975Z,45.20
2018-07-07T14:58:22.973Z,46.00
2018-07-07T15:01:26.314Z,46.90
2018-07-07T15:04:29.615Z,46.80
2018-07-07T15:07:32.816Z,47.00
2018-07-07T15:10:35.982Z,47.70
2018-07-07T15:16:42.077Z,47.00
2018-07-07T15:19:45.303Z,46.90
2018-07-07T15:22:48.807Z,46.40
2018-07-07T15:25:52.180Z,46.40
2018-07-07T15:28:55.340Z,46.30
2018-07-07T15:31:58.479Z,46.30
2018-07-07T15:35:01.636Z,47.10
2018-07-07T15:38:04.863Z,46.60
2018-07-07T15:41:07.998Z,46.70
2018-07-07T15:44:11.143Z,47.20
2018-07-07T15:47:15.271Z,47.50
2018-07-07T15:50:18.548Z,48.20
2018-07-07T15:53:21.730Z,48.10
2018-07-07T15:56:24.890Z,48.00
2018-07-07T15:59:28.043Z,47.90
2018-07-07T16:02:31.187Z,47.20
2018-07-07T16:05:34.348Z,47.80
2018-07-07T16:08:37.527Z,47.50
2018-07-07T16:11:40.683Z,47.20
2018-07-07T16:14:43.819Z,47.70
2018-07-07T16:17:46.974Z,48.30
2018-07-07T16:20:50.234Z,48.20
2018-07-07T16:23:53.387Z,47.80
2018-07-07T16:29:59.499Z,48.30
2018-07-07T16:33:02.638Z,48.40
2018-07-07T16:36:05.787Z,48.40
2018-07-07T16:39:08.932Z,49.30
2018-07-07T16:42:12.162Z,49.80
2018-07-07T16:45:15.348Z,50.50
2018-07-07T16:51:21.871Z,50.00
2018-07-07T16:54:25.006Z,50.10
2018-07-07T16:57:28.155Z,49.90
2018-07-07T17:00:32.194Z,50.10
2018-07-07T17:03:36.325Z,50.50
2018-07-07T17:06:39.478Z,50.80
2018-07-07T17:09:42.615Z,50.60
2018-07-07T17:12:45.755Z,50.90
2018-07-07T17:15:48.891Z,50.70
2018-07-07T17:21:55.138Z,50.90
2018-07-07T17:24:58.906Z,50.80
2018-07-07T17:28:02.044Z,51.20
2018-07-07T17:31:05.240Z,51.80
2018-07-07T17:34:08.372Z,52.30
2018-07-07T17:37:11.577Z,52.90
2018-07-07T17:40:14.919Z,53.30
2018-07-07T17:43:18.091Z,53.90
2018-07-07T17:46:21.600Z,53.40
2018-07-07T17:49:24.849Z,53.60
2018-07-07T17:55:31.323Z,54.50
2018-07-07T17:58:34.531Z,54.80
2018-07-07T18:01:37.987Z,55.20
2018-07-07T18:04:41.282Z,54.90
2018-07-07T18:07:44.655Z,55.40
2018-07-07T18:10:47.804Z,55.50
2018-07-07T18:13:50.959Z,55.40
2018-07-07T18:16:54.194Z,55.20
2018-07-07T18:19:57.447Z,55.30
2018-07-07T18:23:00.607Z,55.80
2018-07-07T18:26:03.819Z,55.80
2018-07-07T18:29:07.004Z,56.50
2018-07-07T18:32:10.183Z,57.00
2018-07-07T18:35:13.331Z,56.90
2018-07-07T18:38:16.586Z,56.70
2018-07-07T18:41:19.670Z,56.80
2018-07-07T18:44:22.837Z,56.90
2018-07-07T18:47:26.061Z,56.80
2018-07-07T18:53:32.227Z,57.80
2018-07-07T18:56:35.442Z,57.90
2018-07-07T18:59:38.548Z,58.20
2018-07-07T19:02:41.713Z,57.80
2018-07-07T19:05:44.895Z,58.10
2018-07-07T19:08:48.042Z,58.70
2018-07-07T19:11:51.263Z,58.80
2018-07-07T19:14:58.679Z,59.30
2018-07-07T19:18:01.881Z,59.70
2018-07-07T19:21:10.403Z,59.70
2018-07-07T19:24:19.262Z,60.00
2018-07-07T19:27:22.411Z,60.40
2018-07-07T19:30:25.853Z,60.50
2018-07-07T19:33:34.546Z,60.90
2018-07-07T19:36:43.281Z,61.30
2018-07-07T19:39:47.131Z,62.00
2018-07-07T19:42:50.675Z,62.50
2018-07-07T19:45:53.864Z,62.60
2018-07-07T19:48:57.082Z,63.50
2018-07-07T19:52:00.569Z,64.20
2018-07-07T19:55:03.784Z,64.40
2018-07-07T19:58:07.144Z,64.60
2018-07-07T20:01:10.262Z,64.70
2018-07-07T20:04:13.414Z,64.70
2018-07-07T20:07:16.831Z,65.20
2018-07-07T20:10:19.972Z,66.50
2018-07-07T20:13:23.227Z,66.60
2018-07-07T20:16:37.981Z,66.60
2018-07-07T20:20:59.901Z,66.50
2018-07-07T20:24:03.403Z,66.90
2018-07-07T20:30:15.347Z,67.40
2018-07-07T20:33:18.487Z,67.80
2018-07-07T20:36:22.539Z,68.30
2018-07-07T20:39:25.983Z,68.50
2018-07-07T20:42:29.131Z,68.30
2018-07-07T20:45:32.267Z,69.40
2018-07-07T20:48:35.408Z,69.60
2018-07-07T20:51:38.583Z,69.70
2018-07-07T20:54:41.742Z,69.50
2018-07-07T20:57:44.883Z,70.00
2018-07-07T21:00:48.031Z,70.20
2018-07-07T21:03:51.326Z,71.20
2018-07-07T21:06:54.563Z,71.50
2018-07-07T21:09:57.749Z,71.80
2018-07-07T21:13:01.020Z,72.20
2018-07-07T21:16:04.393Z,72.30
2018-07-07T21:19:07.715Z,72.80
2018-07-07T21:22:10.998Z,73.20
2018-07-07T21:25:14.147Z,73.30
2018-07-07T21:28:17.295Z,72.80
2018-07-07T21:31:20.455Z,73.40
2018-07-07T21:34:24.020Z,74.10
2018-07-07T21:37:27.171Z,74.40
2018-07-07T21:40:30.352Z,74.90
2018-07-07T21:43:33.914Z,74.90
2018-07-07T21:46:37.058Z,76.00
2018-07-07T21:49:40.281Z,76.50
2018-07-07T21:52:43.415Z,76.80
2018-07-07T21:55:46.563Z,77.20
2018-07-07T21:58:53.927Z,77.30
2018-07-07T22:02:02.591Z,78.20
2018-07-07T22:05:11.403Z,78.20
2018-07-07T22:08:20.411Z,78.20
2018-07-07T22:11:23.555Z,78.40
2018-07-07T22:14:26.685Z,79.00
2018-07-07T22:17:29.812Z,79.90
2018-07-07T22:20:36.997Z,80.70
2018-07-07T22:23:40.139Z,81.20
2018-07-07T22:26:43.379Z,81.30
2018-07-07T22:29:46.599Z,82.10
2018-07-07T22:32:49.837Z,82.70
2018-07-07T22:35:58.716Z,82.80
2018-07-07T22:39:01.935Z,81.90
2018-07-07T22:42:06.287Z,81.70
2018-07-07T22:45:09.425Z,80.90
2018-07-07T22:51:15.479Z,81.90
2018-07-07T22:54:18.626Z,82.90
2018-07-07T22:57:21.784Z,83.60
2018-07-07T23:00:31.351Z,83.90
2018-07-07T23:03:34.509Z,83.80
2018-07-07T23:06:39.242Z,84.30
2018-07-07T23:09:42.425Z,84.80
2018-07-07T23:12:45.564Z,85.00
2018-07-07T23:15:48.699Z,84.30
2018-07-07T23:18:51.910Z,84.50
2018-07-07T23:21:55.217Z,85.60
2018-07-07T23:24:58.466Z,86.30
2018-07-07T23:28:01.628Z,86.90
2018-07-07T23:31:04.812Z,86.20
2018-07-07T23:34:08.026Z,86.30
2018-07-07T23:37:11.154Z,86.10
2018-07-07T23:40:14.371Z,85.70
2018-07-07T23:43:17.555Z,86.30
2018-07-07T23:46:20.679Z,86.10
2018-07-07T23:49:23.814Z,86.90
2018-07-07T23:52:26.968Z,86.80
2018-07-07T23:55:30.237Z,87.50
2018-07-07T23:58:33.386Z,87.60
